createdAt,value
2023-05-09T00:00:26.369Z,117.60
2023-05-09T00:01:26.337Z,114.40
2023-05-09T00:02:26.370Z,115.70
2023-05-09T00:03:26.313Z,111.70
2023-05-09T00:04:26.372Z,111.10
2023-05-09T00:05:26.923Z,108.00
2023-05-09T00:06:26.319Z,110.40
2023-05-09T00:07:26.442Z,109.80
2023-05-09T00:08:26.258Z,111.10
2023-05-09T00:09:26.272Z,111.60
2023-05-09T00:10:26.244Z,113.00
2023-05-09T00:11:26.250Z,109.60
2023-05-09T00:12:26.219Z,107.60
2023-05-09T00:14:26.224Z,114.70
2023-05-09T00:15:26.195Z,116.50
2023-05-09T00:16:26.251Z,120.70
2023-05-09T00:17:26.243Z,125.90
2023-05-09T00:18:26.178Z,127.70
2023-05-09T00:19:26.141Z,126.10
2023-05-09T00:20:26.131Z,127.90
2023-05-09T00:21:26.127Z,132.30
2023-05-09T00:22:26.107Z,133.20
2023-05-09T00:23:26.128Z,136.20
2023-05-09T00:24:26.098Z,136.50
2023-05-09T00:25:26.078Z,136.10
2023-05-09T00:26:26.078Z,139.30
2023-05-09T00:27:26.080Z,137.80
2023-05-09T00:28:26.060Z,136.30
2023-05-09T00:29:26.031Z,133.20
2023-05-09T00:30:26.060Z,133.40
2023-05-09T00:31:26.067Z,134.30
2023-05-09T00:32:26.051Z,133.80
2023-05-09T00:33:25.999Z,141.10
2023-05-09T00:34:25.986Z,144.10
2023-05-09T00:35:25.967Z,148.90
2023-05-09T00:36:25.964Z,141.20
2023-05-09T00:37:25.985Z,147.90
2023-05-09T00:38:25.943Z,145.00
2023-05-09T00:39:25.924Z,140.10
2023-05-09T00:40:25.940Z,140.30
2023-05-09T00:41:25.911Z,137.30
2023-05-09T00:42:25.924Z,141.30
2023-05-09T00:43:25.895Z,143.40
2023-05-09T00:44:25.895Z,142.20
2023-05-09T00:45:25.870Z,145.20
2023-05-09T00:46:25.902Z,141.20
2023-05-09T00:47:25.873Z,137.20
2023-05-09T00:48:25.830Z,137.10
2023-05-09T00:49:25.815Z,142.30
2023-05-09T00:50:25.823Z,143.70
2023-05-09T00:51:25.847Z,138.30
2023-05-09T00:52:25.791Z,141.00
2023-05-09T00:53:25.781Z,141.20
2023-05-09T00:54:25.759Z,138.20
2023-05-09T00:55:25.800Z,149.10
2023-05-09T00:56:25.772Z,147.10
2023-05-09T00:57:25.738Z,148.10
2023-05-09T00:58:25.734Z,149.10
2023-05-09T00:59:25.705Z,151.20
2023-05-09T01:00:25.785Z,151.40
2023-05-09T01:01:25.709Z,156.50
2023-05-09T01:02:25.760Z,151.80
2023-05-09T01:03:25.733Z,149.00
2023-05-09T01:04:25.670Z,151.30
2023-05-09T01:05:26.545Z,154.50
2023-05-09T01:06:25.653Z,152.60
2023-05-09T01:07:25.618Z,150.60
2023-05-09T01:08:25.624Z,157.00
2023-05-09T01:09:25.648Z,159.70
2023-05-09T01:10:25.617Z,163.20
2023-05-09T01:11:25.576Z,162.20
2023-05-09T01:12:25.578Z,165.30
2023-05-09T01:13:25.651Z,172.00
2023-05-09T01:14:25.576Z,170.70
2023-05-09T01:15:25.538Z,177.50
2023-05-09T01:16:25.568Z,174.00
2023-05-09T01:17:25.518Z,176.50
2023-05-09T01:18:25.525Z,176.70
2023-05-09T01:19:25.518Z,173.20
2023-05-09T01:20:25.487Z,174.80
2023-05-09T01:21:25.486Z,175.20
2023-05-09T01:22:25.581Z,176.60
2023-05-09T01:23:25.480Z,183.00
2023-05-09T01:24:25.483Z,181.30
2023-05-09T01:25:25.439Z,182.10
2023-05-09T01:26:25.442Z,178.20
2023-05-09T01:27:25.418Z,185.80
2023-05-09T01:28:25.431Z,185.80
2023-05-09T01:29:25.451Z,181.50
2023-05-09T01:30:25.384Z,188.50
2023-05-09T01:31:25.388Z,187.00
2023-05-09T01:32:25.363Z,189.00
2023-05-09T01:33:25.367Z,185.50
2023-05-09T01:34:25.339Z,182.10
2023-05-09T01:35:25.330Z,180.50
2023-05-09T01:36:25.322Z,184.10
2023-05-09T01:37:25.340Z,185.20
2023-05-09T01:38:25.315Z,183.60
2023-05-09T01:39:25.316Z,182.90
2023-05-09T01:40:25.275Z,180.90
2023-05-09T01:41:25.260Z,179.70
2023-05-09T01:42:25.263Z,175.70
2023-05-09T01:43:25.238Z,178.80
2023-05-09T01:44:25.236Z,177.90
2023-05-09T01:45:25.235Z,181.20
2023-05-09T01:46:25.217Z,178.50
2023-05-09T01:47:25.245Z,176.20
2023-05-09T01:48:25.188Z,182.90
2023-05-09T01:49:25.179Z,183.70
2023-05-09T01:50:25.177Z,184.60
2023-05-09T01:51:25.186Z,187.90
2023-05-09T01:52:25.198Z,188.50
2023-05-09T01:53:25.133Z,192.30
2023-05-09T01:54:25.124Z,187.90
2023-05-09T01:55:25.108Z,189.80
2023-05-09T01:56:25.119Z,186.60
2023-05-09T01:57:25.093Z,192.00
2023-05-09T01:58:25.071Z,192.70
2023-05-09T01:59:25.066Z,189.10
2023-05-09T02:00:25.138Z,191.90
2023-05-09T02:01:25.132Z,188.60
2023-05-09T02:02:25.116Z,200.10
2023-05-09T02:03:25.039Z,199.90
2023-05-09T02:04:25.034Z,195.30
2023-05-09T02:05:25.266Z,197.60
2023-05-09T02:06:25.012Z,201.80
2023-05-09T02:07:24.984Z,200.50
2023-05-09T02:08:24.969Z,199.60
2023-05-09T02:09:26.080Z,199.90
2023-05-09T02:10:24.970Z,203.40
2023-05-09T02:11:24.969Z,201.80
2023-05-09T02:12:24.925Z,196.00
2023-05-09T02:13:25.003Z,190.50
2023-05-09T02:14:25.181Z,200.50
2023-05-09T02:15:24.944Z,195.50
2023-05-09T02:16:24.908Z,201.90
2023-05-09T02:17:24.892Z,203.00
2023-05-09T02:18:24.869Z,199.20
2023-05-09T02:19:26.791Z,196.80
2023-05-09T02:20:24.914Z,187.20
2023-05-09T02:21:25.599Z,195.30
2023-05-09T02:22:24.816Z,197.50
2023-05-09T02:23:24.797Z,201.30
2023-05-09T02:24:24.817Z,198.90
2023-05-09T02:25:24.797Z,200.00
2023-05-09T02:26:24.785Z,197.40
2023-05-09T02:27:24.768Z,197.00
2023-05-09T02:28:25.312Z,201.70
2023-05-09T02:29:24.777Z,203.80
2023-05-09T02:30:24.743Z,204.10
2023-05-09T02:31:24.730Z,197.10
2023-05-09T02:32:24.725Z,196.90
2023-05-09T02:33:24.724Z,198.60
2023-05-09T02:34:24.723Z,202.10
2023-05-09T02:35:24.676Z,206.20
2023-05-09T02:36:24.675Z,196.90
2023-05-09T02:37:24.659Z,198.90
2023-05-09T02:38:24.674Z,198.20
2023-05-09T02:39:24.633Z,201.40
2023-05-09T02:40:24.639Z,199.10
2023-05-09T02:41:24.642Z,204.50
2023-05-09T02:42:24.604Z,206.70
2023-05-09T02:43:24.636Z,203.20
2023-05-09T02:44:24.618Z,202.50
2023-05-09T02:45:24.582Z,202.30
2023-05-09T02:46:24.630Z,202.80
2023-05-09T02:47:24.597Z,205.20
2023-05-09T02:48:24.569Z,205.50
2023-05-09T02:49:32.097Z,208.00
2023-05-09T02:50:24.531Z,205.40
2023-05-09T02:51:24.504Z,192.30
2023-05-09T02:52:24.519Z,195.20
2023-05-09T02:53:24.492Z,196.20
2023-05-09T02:54:24.482Z,202.70
2023-05-09T02:55:24.465Z,202.90
2023-05-09T02:56:24.451Z,200.20
2023-05-09T02:57:24.466Z,205.10
2023-05-09T02:58:24.453Z,204.00
2023-05-09T02:59:24.429Z,208.50
2023-05-09T03:00:24.848Z,206.60
2023-05-09T03:01:24.459Z,209.10
2023-05-09T03:02:24.474Z,201.60
2023-05-09T03:03:24.473Z,194.30
2023-05-09T03:04:24.373Z,190.20
2023-05-09T03:05:24.467Z,190.50
2023-05-09T03:06:24.382Z,184.90
2023-05-09T03:07:24.334Z,191.90
2023-05-09T03:08:24.348Z,187.40
2023-05-09T03:09:24.317Z,182.50
2023-05-09T03:10:24.325Z,179.80
2023-05-09T03:11:24.325Z,179.70
2023-05-09T03:12:24.324Z,184.40
2023-05-09T03:13:24.332Z,182.60
2023-05-09T03:14:24.617Z,184.20
2023-05-09T03:15:24.278Z,177.60
2023-05-09T03:16:24.277Z,177.00
2023-05-09T03:17:24.267Z,174.10
2023-05-09T03:18:24.238Z,186.10
2023-05-09T03:19:24.210Z,178.50
2023-05-09T03:20:24.229Z,179.00
2023-05-09T03:21:24.205Z,181.30
2023-05-09T03:22:24.181Z,185.40
2023-05-09T03:23:24.198Z,192.80
2023-05-09T03:24:24.171Z,188.40
2023-05-09T03:25:24.169Z,184.20
2023-05-09T03:26:24.179Z,189.00
2023-05-09T03:27:24.121Z,192.00
2023-05-09T03:28:24.134Z,189.60
2023-05-09T03:29:24.138Z,191.00
2023-05-09T03:30:24.128Z,190.40
2023-05-09T03:31:24.106Z,190.50
2023-05-09T03:32:24.121Z,192.10
2023-05-09T03:33:24.073Z,184.60
2023-05-09T03:34:24.083Z,183.10
2023-05-09T03:35:24.056Z,191.30
2023-05-09T03:36:24.039Z,188.90
2023-05-09T03:37:25.546Z,187.90
2023-05-09T03:38:24.045Z,188.90
2023-05-09T03:39:24.020Z,183.10
2023-05-09T03:40:24.013Z,181.70
2023-05-09T03:41:23.978Z,184.80
2023-05-09T03:42:23.998Z,184.60
2023-05-09T03:43:23.979Z,181.30
2023-05-09T03:44:23.976Z,184.70
2023-05-09T03:45:23.938Z,177.00
2023-05-09T03:46:23.981Z,179.90
2023-05-09T03:47:23.921Z,176.40
2023-05-09T03:48:23.963Z,176.90
2023-05-09T03:49:23.918Z,174.00
2023-05-09T03:50:23.895Z,171.00
2023-05-09T03:51:23.882Z,169.70
2023-05-09T03:52:23.895Z,170.40
2023-05-09T03:53:23.897Z,172.50
2023-05-09T03:54:23.856Z,171.80
2023-05-09T03:55:23.843Z,171.20
2023-05-09T03:56:23.853Z,170.80
2023-05-09T03:57:23.832Z,173.00
2023-05-09T03:58:23.827Z,169.10
2023-05-09T03:59:23.800Z,172.30
2023-05-09T04:00:24.336Z,179.00
2023-05-09T04:01:23.792Z,177.80
2023-05-09T04:02:23.886Z,168.00
2023-05-09T04:03:23.822Z,168.10
2023-05-09T04:04:23.748Z,167.00
2023-05-09T04:05:23.731Z,169.00
2023-05-09T04:06:23.745Z,167.80
2023-05-09T04:07:23.754Z,165.80
2023-05-09T04:08:23.702Z,160.80
2023-05-09T04:09:23.708Z,162.20
2023-05-09T04:10:23.679Z,158.50
2023-05-09T04:11:23.683Z,163.90
2023-05-09T04:12:23.694Z,161.30
2023-05-09T04:13:23.731Z,161.30
2023-05-09T04:14:24.772Z,166.10
2023-05-09T04:15:23.629Z,166.70
2023-05-09T04:16:23.721Z,169.60
2023-05-09T04:17:23.669Z,174.60
2023-05-09T04:18:23.597Z,175.60
2023-05-09T04:19:23.577Z,177.70
2023-05-09T04:20:23.582Z,172.80
2023-05-09T04:21:23.585Z,174.40
2023-05-09T04:22:23.569Z,174.10
2023-05-09T04:23:23.535Z,173.10
2023-05-09T04:24:23.540Z,169.20
2023-05-09T04:25:23.532Z,176.10
2023-05-09T04:26:23.535Z,174.40
2023-05-09T04:27:23.496Z,172.10
2023-05-09T04:28:23.492Z,172.50
2023-05-09T04:29:23.481Z,168.90
2023-05-09T04:30:23.489Z,171.00
2023-05-09T04:31:23.564Z,169.60
2023-05-09T04:32:23.477Z,167.70
2023-05-09T04:33:23.437Z,170.10
2023-05-09T04:34:23.433Z,166.90
2023-05-09T04:35:23.558Z,164.70
2023-05-09T04:36:23.430Z,166.40
2023-05-09T04:37:23.403Z,166.30
2023-05-09T04:38:23.408Z,169.10
2023-05-09T04:39:23.369Z,169.90
2023-05-09T04:40:25.520Z,167.90
2023-05-09T04:41:23.361Z,164.40
2023-05-09T04:42:23.340Z,161.10
2023-05-09T04:43:23.347Z,160.90
2023-05-09T04:44:23.365Z,157.10
2023-05-09T04:45:23.328Z,158.30
2023-05-09T04:46:25.646Z,158.20
2023-05-09T04:47:23.324Z,161.30
2023-05-09T04:48:23.289Z,161.30
2023-05-09T04:49:23.294Z,162.50
2023-05-09T04:50:23.285Z,158.60
2023-05-09T04:51:23.239Z,157.20
2023-05-09T04:52:23.259Z,157.40
2023-05-09T04:53:23.232Z,157.20
2023-05-09T04:54:23.250Z,157.10
2023-05-09T04:55:23.210Z,161.00
2023-05-09T04:56:23.204Z,155.60
2023-05-09T04:57:23.187Z,158.90
2023-05-09T04:58:23.185Z,162.60
2023-05-09T04:59:23.188Z,164.30
2023-05-09T05:00:23.639Z,164.80
2023-05-09T05:01:23.180Z,163.00
2023-05-09T05:02:23.158Z,164.00
2023-05-09T05:03:23.145Z,161.20
2023-05-09T05:04:23.145Z,159.70
2023-05-09T05:05:25.268Z,165.50
2023-05-09T05:06:23.096Z,160.50
2023-05-09T05:07:23.098Z,156.70
2023-05-09T05:08:23.107Z,155.40
2023-05-09T05:09:23.115Z,164.10
2023-05-09T05:10:23.051Z,167.40
2023-05-09T05:11:23.031Z,160.60
2023-05-09T05:12:23.037Z,155.90
2023-05-09T05:13:23.068Z,160.10
2023-05-09T05:14:23.125Z,157.10
2023-05-09T05:15:22.991Z,158.70
2023-05-09T05:16:23.022Z,160.70
2023-05-09T05:17:22.989Z,156.30
2023-05-09T05:18:22.987Z,150.80
2023-05-09T05:19:22.949Z,153.60
2023-05-09T05:20:22.966Z,152.30
2023-05-09T05:21:22.951Z,150.80
2023-05-09T05:22:22.943Z,153.10
2023-05-09T05:23:22.938Z,155.40
2023-05-09T05:24:22.901Z,155.90
2023-05-09T05:25:22.899Z,154.40
2023-05-09T05:26:22.897Z,150.40
2023-05-09T05:27:22.884Z,151.30
2023-05-09T05:28:22.860Z,152.10
2023-05-09T05:29:22.901Z,152.20
2023-05-09T05:30:22.854Z,154.90
2023-05-09T05:31:22.877Z,154.50
2023-05-09T05:32:22.840Z,152.90
2023-05-09T05:33:22.819Z,158.10
2023-05-09T05:34:22.800Z,154.60
2023-05-09T05:35:22.787Z,155.00
2023-05-09T05:36:22.791Z,158.30
2023-05-09T05:37:22.777Z,158.00
2023-05-09T05:38:22.776Z,159.70
2023-05-09T05:39:22.757Z,161.00
2023-05-09T05:40:22.720Z,158.60
2023-05-09T05:41:22.725Z,157.70
2023-05-09T05:42:22.712Z,155.40
2023-05-09T05:43:22.691Z,156.40
2023-05-09T05:44:22.696Z,157.40
2023-05-09T05:45:22.697Z,161.00
2023-05-09T05:46:24.104Z,159.50
2023-05-09T05:47:22.647Z,160.70
2023-05-09T05:48:22.639Z,159.70
2023-05-09T05:49:22.634Z,161.00
2023-05-09T05:50:22.644Z,161.40
2023-05-09T05:51:22.629Z,160.60
2023-05-09T05:52:22.599Z,163.00
2023-05-09T05:53:22.583Z,160.00
2023-05-09T05:54:22.640Z,158.50
2023-05-09T05:55:22.615Z,163.60
2023-05-09T05:56:22.560Z,159.00
2023-05-09T05:57:22.552Z,160.10
2023-05-09T05:58:22.534Z,157.40
2023-05-09T05:59:22.515Z,156.20
2023-05-09T06:00:23.473Z,157.20
2023-05-09T06:01:22.659Z,153.70
2023-05-09T06:02:22.513Z,156.40
2023-05-09T06:03:22.541Z,156.20
2023-05-09T06:04:22.614Z,158.80
2023-05-09T06:05:22.477Z,162.20
2023-05-09T06:06:22.442Z,164.40
2023-05-09T06:07:22.432Z,160.70
2023-05-09T06:08:22.440Z,161.10
2023-05-09T06:09:22.439Z,162.20
2023-05-09T06:10:22.405Z,158.70
2023-05-09T06:11:22.393Z,157.60
2023-05-09T06:12:22.372Z,158.00
2023-05-09T06:13:22.513Z,161.80
2023-05-09T06:14:22.391Z,160.00
2023-05-09T06:15:22.350Z,162.90
2023-05-09T06:16:22.391Z,160.40
2023-05-09T06:17:22.327Z,163.90
2023-05-09T06:18:22.316Z,165.20
2023-05-09T06:19:22.326Z,161.90
2023-05-09T06:20:22.285Z,163.10
2023-05-09T06:21:22.291Z,161.00
2023-05-09T06:22:22.292Z,161.10
2023-05-09T06:23:22.337Z,157.70
2023-05-09T06:24:34.530Z,157.60
2023-05-09T06:25:22.254Z,162.20
2023-05-09T06:26:22.237Z,164.00
2023-05-09T06:27:22.218Z,163.10
2023-05-09T06:28:22.223Z,159.80
2023-05-09T06:29:22.213Z,165.20
2023-05-09T06:30:26.083Z,169.60
2023-05-09T06:31:23.514Z,170.80
2023-05-09T06:32:22.248Z,172.20
2023-05-09T06:33:22.196Z,169.00
2023-05-09T06:34:22.147Z,168.00
2023-05-09T06:35:22.206Z,165.00
2023-05-09T06:36:22.149Z,166.50
2023-05-09T06:37:22.153Z,165.80
2023-05-09T06:38:22.136Z,165.40
2023-05-09T06:39:22.100Z,162.70
2023-05-09T06:40:22.085Z,167.40
2023-05-09T06:41:22.077Z,164.20
2023-05-09T06:42:22.082Z,164.70
2023-05-09T06:43:22.061Z,159.70
2023-05-09T06:44:22.033Z,157.10
2023-05-09T06:45:22.110Z,158.00
2023-05-09T06:46:22.085Z,152.90
2023-05-09T06:47:22.032Z,162.40
2023-05-09T06:48:22.004Z,161.30
2023-05-09T06:49:22.000Z,162.00
2023-05-09T06:50:21.982Z,162.00
2023-05-09T06:51:22.035Z,155.10
2023-05-09T06:52:21.996Z,154.20
2023-05-09T06:53:21.966Z,154.40
2023-05-09T06:54:21.932Z,154.30
2023-05-09T06:55:22.323Z,150.70
2023-05-09T06:56:21.974Z,155.60
2023-05-09T06:57:21.898Z,153.70
2023-05-09T06:58:21.923Z,152.70
2023-05-09T06:59:21.874Z,152.20
2023-05-09T07:00:21.877Z,153.40
2023-05-09T07:01:21.954Z,144.90
2023-05-09T07:02:21.846Z,145.80
2023-05-09T07:03:21.864Z,149.10
2023-05-09T07:04:21.824Z,144.20
2023-05-09T07:05:21.919Z,150.00
2023-05-09T07:06:21.854Z,156.10
2023-05-09T07:07:21.793Z,146.30
2023-05-09T07:08:21.782Z,148.10
2023-05-09T07:09:21.796Z,148.30
2023-05-09T07:10:21.781Z,154.60
2023-05-09T07:11:28.246Z,151.60
2023-05-09T07:12:21.740Z,149.50
2023-05-09T07:13:21.838Z,149.50
2023-05-09T07:14:21.721Z,152.80
2023-05-09T07:15:36.696Z,149.50
2023-05-09T07:16:21.781Z,146.70
2023-05-09T07:17:24.032Z,150.50
2023-05-09T07:18:21.687Z,150.20
2023-05-09T07:19:21.692Z,145.50
2023-05-09T07:20:21.748Z,155.60
2023-05-09T07:21:21.668Z,149.20
2023-05-09T07:22:21.660Z,155.90
2023-05-09T07:23:21.627Z,152.60
2023-05-09T07:24:21.626Z,145.70
2023-05-09T07:25:21.645Z,148.90
2023-05-09T07:26:21.595Z,149.70
2023-05-09T07:27:21.604Z,154.70
2023-05-09T07:28:21.600Z,154.30
2023-05-09T07:29:21.593Z,155.20
2023-05-09T07:30:21.569Z,151.00
2023-05-09T07:31:21.603Z,150.50
2023-05-09T07:32:21.548Z,157.60
2023-05-09T07:33:21.569Z,156.10
2023-05-09T07:34:21.532Z,159.60
2023-05-09T07:35:21.524Z,158.20
2023-05-09T07:36:21.467Z,156.90
2023-05-09T07:37:21.544Z,154.40
2023-05-09T07:38:21.493Z,155.90
2023-05-09T07:39:21.464Z,159.60
2023-05-09T07:40:21.448Z,158.60
2023-05-09T07:41:21.563Z,162.60
2023-05-09T07:42:21.442Z,160.20
2023-05-09T07:43:21.425Z,161.90
2023-05-09T07:44:21.404Z,164.30
2023-05-09T07:45:23.666Z,156.80
2023-05-09T07:46:21.992Z,156.80
2023-05-09T07:47:21.388Z,151.30
2023-05-09T07:48:21.353Z,157.10
2023-05-09T07:49:21.336Z,151.50
2023-05-09T07:50:21.333Z,156.70
2023-05-09T07:51:21.341Z,160.60
2023-05-09T07:52:21.369Z,161.20
2023-05-09T07:53:21.296Z,160.00
2023-05-09T07:54:21.285Z,163.90
2023-05-09T07:55:21.354Z,158.70
2023-05-09T07:56:21.261Z,156.40
2023-05-09T07:57:21.284Z,160.70
2023-05-09T07:58:21.242Z,160.20
2023-05-09T07:59:21.272Z,154.70
2023-05-09T08:00:21.231Z,143.60
2023-05-09T08:01:21.248Z,149.20
2023-05-09T08:02:21.291Z,144.40
2023-05-09T08:03:21.282Z,155.10
2023-05-09T08:04:21.204Z,153.50
2023-05-09T08:05:21.203Z,156.30
2023-05-09T08:06:21.188Z,147.70
2023-05-09T08:07:21.194Z,145.10
2023-05-09T08:08:21.144Z,147.10
2023-05-09T08:09:22.654Z,146.50
2023-05-09T08:10:21.118Z,144.60
2023-05-09T08:11:21.137Z,144.90
2023-05-09T08:12:21.090Z,142.40
2023-05-09T08:13:21.262Z,140.80
2023-05-09T08:14:21.101Z,142.50
2023-05-09T08:15:21.149Z,141.40
2023-05-09T08:16:21.195Z,136.10
2023-05-09T08:17:21.086Z,135.60
2023-05-09T08:18:21.050Z,140.40
2023-05-09T08:19:21.086Z,141.50
2023-05-09T08:20:21.044Z,139.50
2023-05-09T08:21:22.283Z,137.50
2023-05-09T08:22:21.001Z,133.50
2023-05-09T08:23:20.985Z,141.20
2023-05-09T08:24:21.001Z,145.10
2023-05-09T08:25:21.014Z,143.80
2023-05-09T08:26:20.963Z,144.40
2023-05-09T08:27:20.947Z,145.90
2023-05-09T08:28:20.938Z,151.10
2023-05-09T08:29:20.942Z,136.00
2023-05-09T08:30:20.910Z,136.80
2023-05-09T08:31:20.953Z,139.70
2023-05-09T08:32:20.888Z,135.30
2023-05-09T08:33:20.911Z,126.80
2023-05-09T08:34:20.902Z,126.30
2023-05-09T08:35:20.861Z,115.40
2023-05-09T08:36:20.848Z,97.40
2023-05-09T08:37:20.854Z,103.10
2023-05-09T08:38:20.845Z,116.70
2023-05-09T08:39:20.850Z,113.00
2023-05-09T08:40:20.818Z,104.60
2023-05-09T08:41:20.899Z,109.20
2023-05-09T08:42:20.872Z,98.40
2023-05-09T08:43:20.828Z,86.20
2023-05-09T08:44:20.826Z,73.80
2023-05-09T08:45:20.838Z,79.10
2023-05-09T08:46:22.213Z,68.60
2023-05-09T08:47:20.753Z,65.90
2023-05-09T08:48:20.761Z,63.30
2023-05-09T08:49:20.711Z,68.60
2023-05-09T08:50:20.688Z,69.90
2023-05-09T08:51:21.366Z,66.60
2023-05-09T08:52:20.831Z,69.00
2023-05-09T08:53:20.684Z,64.80
2023-05-09T08:54:22.206Z,64.40
2023-05-09T08:55:20.721Z,55.00
2023-05-09T08:56:20.629Z,48.90
2023-05-09T08:57:20.693Z,36.70
2023-05-09T08:58:20.618Z,35.90
2023-05-09T08:59:20.627Z,46.50
2023-05-09T09:00:21.136Z,48.20
2023-05-09T09:01:20.616Z,53.60
2023-05-09T09:02:20.615Z,51.90
2023-05-09T09:03:20.669Z,35.00
2023-05-09T09:04:20.651Z,40.40
2023-05-09T09:05:39.994Z,38.40
2023-05-09T09:06:20.664Z,39.00
2023-05-09T09:07:20.602Z,42.80
2023-05-09T09:08:20.572Z,47.40
2023-05-09T09:09:20.562Z,42.30
2023-05-09T09:10:20.523Z,45.30
2023-05-09T09:11:20.522Z,55.10
2023-05-09T09:12:20.512Z,49.20
2023-05-09T09:13:20.581Z,54.50
2023-05-09T09:14:20.487Z,53.40
2023-05-09T09:15:20.725Z,58.60
2023-05-09T09:16:20.550Z,62.90
2023-05-09T09:17:20.457Z,59.80
2023-05-09T09:18:20.543Z,64.40
2023-05-09T09:19:20.397Z,67.50
2023-05-09T09:20:20.474Z,52.90
2023-05-09T09:21:20.408Z,50.40
2023-05-09T09:22:20.393Z,51.10
2023-05-09T09:23:20.341Z,57.60
2023-05-09T09:24:20.330Z,61.90
2023-05-09T09:25:20.354Z,59.60
2023-05-09T09:26:20.416Z,52.40
2023-05-09T09:27:20.334Z,36.80
2023-05-09T09:28:20.311Z,44.30
2023-05-09T09:29:20.324Z,40.30
2023-05-09T09:30:20.399Z,37.60
2023-05-09T09:31:20.313Z,35.10
2023-05-09T09:32:20.373Z,28.80
2023-05-09T09:33:20.257Z,29.80
2023-05-09T09:34:20.294Z,34.60
2023-05-09T09:35:20.237Z,26.40
2023-05-09T09:36:20.226Z,22.10
2023-05-09T09:37:20.208Z,19.40
2023-05-09T09:38:20.253Z,22.30
2023-05-09T09:39:20.269Z,18.70
2023-05-09T09:40:20.220Z,17.50
2023-05-09T09:41:20.183Z,16.80
2023-05-09T09:42:20.156Z,18.10
2023-05-09T09:43:20.199Z,20.90
2023-05-09T09:44:20.149Z,18.50
2023-05-09T09:45:20.293Z,20.10
2023-05-09T09:46:20.153Z,19.50
2023-05-09T09:47:20.112Z,17.80
2023-05-09T09:48:20.111Z,17.20
2023-05-09T09:49:20.077Z,20.40
2023-05-09T09:50:20.124Z,20.60
2023-05-09T09:51:20.087Z,15.10
2023-05-09T09:52:20.058Z,16.30
2023-05-09T09:53:20.075Z,15.20
2023-05-09T09:54:20.062Z,14.10
2023-05-09T09:55:20.437Z,20.50
2023-05-09T09:56:20.278Z,12.80
2023-05-09T09:57:20.385Z,13.40
2023-05-09T09:58:20.459Z,15.50
2023-05-09T09:59:19.994Z,15.80
2023-05-09T10:00:19.989Z,12.70
2023-05-09T10:01:19.988Z,18.60
2023-05-09T10:02:19.958Z,11.40
2023-05-09T10:03:20.020Z,14.50
2023-05-09T10:04:19.952Z,10.10
2023-05-09T10:05:19.906Z,13.70
2023-05-09T10:06:19.900Z,11.40
2023-05-09T10:07:19.968Z,12.30
2023-05-09T10:08:19.958Z,13.30
2023-05-09T10:09:19.866Z,13.20
2023-05-09T10:10:20.038Z,12.40
2023-05-09T10:11:19.870Z,11.20
2023-05-09T10:12:19.854Z,11.60
2023-05-09T10:13:19.868Z,11.90
2023-05-09T10:14:19.855Z,11.10
2023-05-09T10:15:19.788Z,12.50
2023-05-09T10:16:25.899Z,11.90
2023-05-09T10:17:19.863Z,9.60
2023-05-09T10:18:26.513Z,14.90
2023-05-09T10:19:19.752Z,12.10
2023-05-09T10:20:19.740Z,11.40
2023-05-09T10:21:19.741Z,12.60
2023-05-09T10:22:19.739Z,10.80
2023-05-09T10:23:19.715Z,12.60
2023-05-09T10:24:19.700Z,12.00
2023-05-09T10:25:19.797Z,12.00
2023-05-09T10:26:19.740Z,11.50
2023-05-09T10:27:19.687Z,16.60
2023-05-09T10:28:19.713Z,11.90
2023-05-09T10:29:19.676Z,11.80
2023-05-09T10:30:19.678Z,13.30
2023-05-09T10:31:19.673Z,10.30
2023-05-09T10:32:19.612Z,13.10
2023-05-09T10:33:19.598Z,12.00
2023-05-09T10:34:19.602Z,13.80
2023-05-09T10:35:19.625Z,14.50
2023-05-09T10:36:19.616Z,15.30
2023-05-09T10:37:19.578Z,13.60
2023-05-09T10:38:19.550Z,11.90
2023-05-09T10:39:19.572Z,12.00
2023-05-09T10:40:19.584Z,15.40
2023-05-09T10:41:19.517Z,11.30
2023-05-09T10:42:19.513Z,18.00
2023-05-09T10:43:19.500Z,14.90
2023-05-09T10:44:19.543Z,10.90
2023-05-09T10:45:19.532Z,11.00
2023-05-09T10:46:19.525Z,12.80
2023-05-09T10:47:19.571Z,9.90
2023-05-09T10:48:19.485Z,10.90
2023-05-09T10:49:19.483Z,11.60
2023-05-09T10:50:20.727Z,11.10
2023-05-09T10:51:19.433Z,12.30
2023-05-09T10:52:19.391Z,9.60
2023-05-09T10:53:19.431Z,8.80
2023-05-09T10:54:19.411Z,10.00
2023-05-09T10:55:19.369Z,9.30
2023-05-09T10:56:19.374Z,8.70
2023-05-09T10:57:19.351Z,9.80
2023-05-09T10:58:19.414Z,9.80
2023-05-09T10:59:19.358Z,8.40
2023-05-09T11:00:19.370Z,10.80
2023-05-09T11:01:19.352Z,10.20
2023-05-09T11:02:19.317Z,8.20
2023-05-09T11:03:19.482Z,7.60
2023-05-09T11:04:19.272Z,8.30
2023-05-09T11:05:19.299Z,10.80
2023-05-09T11:06:19.246Z,9.20
2023-05-09T11:07:19.274Z,10.60
2023-05-09T11:08:19.274Z,7.60
2023-05-09T11:09:19.212Z,12.00
2023-05-09T11:10:19.207Z,7.90
2023-05-09T11:11:19.222Z,7.50
2023-05-09T11:12:19.227Z,10.60
2023-05-09T11:13:19.330Z,8.60
2023-05-09T11:14:19.174Z,8.40
2023-05-09T11:15:19.188Z,9.50
2023-05-09T11:16:19.260Z,8.00
2023-05-09T11:17:19.148Z,8.30
2023-05-09T11:18:19.150Z,12.80
2023-05-09T11:19:19.113Z,9.90
2023-05-09T11:20:19.131Z,9.00
2023-05-09T11:21:19.090Z,10.20
2023-05-09T11:22:19.103Z,13.50
2023-05-09T11:23:19.094Z,9.70
2023-05-09T11:24:19.058Z,11.20
2023-05-09T11:25:19.052Z,13.20
2023-05-09T11:26:19.058Z,9.40
2023-05-09T11:27:19.015Z,10.40
2023-05-09T11:28:19.017Z,13.90
2023-05-09T11:29:19.037Z,10.50
2023-05-09T11:30:19.011Z,10.70
2023-05-09T11:31:19.169Z,9.00
2023-05-09T11:32:18.980Z,10.40
2023-05-09T11:33:18.963Z,8.70
2023-05-09T11:34:18.976Z,9.10
2023-05-09T11:35:19.019Z,7.90
2023-05-09T11:36:18.955Z,9.90
2023-05-09T11:37:18.947Z,11.70
2023-05-09T11:38:18.908Z,11.40
2023-05-09T11:39:18.931Z,9.80
2023-05-09T11:40:18.964Z,10.30
2023-05-09T11:41:18.916Z,9.60
2023-05-09T11:42:18.901Z,10.70
2023-05-09T11:43:18.864Z,8.00
2023-05-09T11:44:18.857Z,9.00
2023-05-09T11:45:18.898Z,10.20
2023-05-09T11:46:18.901Z,7.10
2023-05-09T11:47:18.793Z,8.30
2023-05-09T11:48:18.863Z,8.70
2023-05-09T11:49:18.825Z,8.50
2023-05-09T11:50:18.832Z,9.20
2023-05-09T11:51:18.768Z,8.70
2023-05-09T11:52:18.772Z,8.30
2023-05-09T11:53:18.749Z,8.20
2023-05-09T11:54:18.772Z,9.00
2023-05-09T11:55:19.371Z,8.00
2023-05-09T11:56:18.777Z,11.40
2023-05-09T11:57:18.769Z,9.10
2023-05-09T11:58:18.717Z,8.00
2023-05-09T11:59:18.702Z,9.00
2023-05-09T12:00:18.655Z,6.90
2023-05-09T12:01:18.664Z,8.50
2023-05-09T12:02:18.706Z,9.40
2023-05-09T12:03:19.100Z,8.40
2023-05-09T12:04:18.689Z,7.30
2023-05-09T12:05:18.668Z,7.60
2023-05-09T12:06:18.610Z,8.70
2023-05-09T12:07:18.619Z,7.70
2023-05-09T12:08:18.603Z,6.50
2023-05-09T12:09:18.554Z,8.60
2023-05-09T12:10:18.573Z,5.50
2023-05-09T12:11:18.557Z,5.90
2023-05-09T12:12:18.552Z,6.60
2023-05-09T12:13:18.576Z,6.20
2023-05-09T12:14:18.527Z,5.50
2023-05-09T12:15:19.219Z,6.50
2023-05-09T12:16:18.562Z,5.20
2023-05-09T12:17:18.545Z,6.00
2023-05-09T12:18:18.503Z,6.30
2023-05-09T12:19:18.598Z,6.00
2023-05-09T12:20:18.465Z,6.00
2023-05-09T12:21:18.459Z,8.70
2023-05-09T12:22:18.474Z,6.90
2023-05-09T12:23:18.423Z,8.00
2023-05-09T12:24:18.430Z,9.90
2023-05-09T12:25:18.396Z,6.80
2023-05-09T12:26:18.476Z,5.80
2023-05-09T12:27:18.429Z,6.10
2023-05-09T12:28:18.370Z,5.90
2023-05-09T12:29:18.349Z,5.00
2023-05-09T12:30:18.349Z,6.20
2023-05-09T12:31:18.466Z,7.80
2023-05-09T12:32:18.363Z,7.30
2023-05-09T12:33:18.424Z,6.10
2023-05-09T12:34:18.301Z,5.90
2023-05-09T12:35:18.289Z,7.10
2023-05-09T12:36:18.303Z,8.40
2023-05-09T12:37:24.766Z,6.80
2023-05-09T12:38:25.781Z,8.20
2023-05-09T12:39:25.754Z,6.70